SAAR

Islas Malvinas Airport

Rosario, Argentina
TAF SAAR 151100Z 1512/1612 VRB03KT CAVOK TX18/1519Z TN02/1610Z BECMG 1513/1515 07005KT
Issued Valid From Valid To
Aug-15 @ 11:00 UTC
(2 hours ago)
Aug-15 @ 12:00 UTC
(39 minutes ago)
Aug-16 @ 12:00 UTC
(in 23 hours)
Aug-15 @ 12:00 to Aug-15 @ 13:00
TAF SAAR 151100Z 1512/1612 VRB03KT CAVOK TX18/1519Z TN02/1610Z
Wind Visibility Clouds
Variable at 3 knots 10,000+ meters
  • No significant clouds
Becoming Aug-15 @ 13:00 to Aug-16 @ 12:00
BECMG 1513/1515 07005KT
Wind Visibility Clouds
70° at 5 knots 10,000+ meters
  • No significant clouds
TAF SAAR 151100Z 1512/1612 VRB03KT CAVOK TX18/1519Z TN02/1610Z BECMG 1513/1515 07005KT
Issued Aug-15 @ 11:00 UTC
(2 hours ago)
Valid From Aug-15 @ 12:00 UTC
(39 minutes ago)
Valid To Aug-16 @ 12:00 UTC
(in 23 hours)
Aug-15 @ 12:00 - Aug-15 @ 13:00
Wind Visibility
Variable at 3 knots 10,000+ meters
Clouds
  • No significant clouds
Becoming Aug-15 @ 13:00 - Aug-16 @ 12:00
Wind Visibility
70° at 5 knots 10,000+ meters
Clouds
  • No significant clouds